Terminal Aerodrome Forecast
Issued by NWS

Home | Current Version | Previous Version | Text Only | Print | Product List | Glossary On
Versions: 1 2 3 4 5 6 7 8 9 10 11 12 13 14 15 16 17 18 19 20
000
FTUS43 KILX 180700 AAA
TAFDEC
TAF AMD
KDEC 180711Z 1807/1906 VRB03KT P6SM OVC020
      TEMPO 1808/1809 SCT020
     FM180900 VRB03KT P6SM SCT020 BKN250
     FM181200 VRB03KT P6SM OVC080
     FM181700 VRB03KT P6SM OVC050
      TEMPO 1818/1821 BKN030
     FM182300 VRB03KT P6SM SCT035 BKN250
     FM190200 VRB03KT P6SM SCT250=

USA.gov is the U.S. government's official web portal to all federal, state and local government web resources and services.